sensor_id;sensor_type;location;lat;lon;timestamp;temperature;humidity
46085;DHT22;31823;47.032;8.310;2023-09-19T00:02:17;15.70;99.90
46085;DHT22;31823;47.032;8.310;2023-09-19T00:04:43;15.90;99.90
46085;DHT22;31823;47.032;8.310;2023-09-19T00:07:08;16.00;99.90
46085;DHT22;31823;47.032;8.310;2023-09-19T00:09:34;16.00;99.90
46085;DHT22;31823;47.032;8.310;2023-09-19T00:12:06;15.90;99.90
46085;DHT22;31823;47.032;8.310;2023-09-19T00:14:34;15.80;99.90
46085;DHT22;31823;47.032;8.310;2023-09-19T00:17:01;15.70;99.90
46085;DHT22;31823;47.032;8.310;2023-09-19T00:19:32;15.60;99.90
46085;DHT22;31823;47.032;8.310;2023-09-19T00:21:58;15.70;99.90
46085;DHT22;31823;47.032;8.310;2023-09-19T00:24:24;15.80;99.90
46085;DHT22;31823;47.032;8.310;2023-09-19T00:26:49;15.80;99.90
46085;DHT22;31823;47.032;8.310;2023-09-19T00:29:15;15.80;99.90
46085;DHT22;31823;47.032;8.310;2023-09-19T00:31:45;15.70;99.90
46085;DHT22;31823;47.032;8.310;2023-09-19T00:34:11;15.70;99.90
46085;DHT22;31823;47.032;8.310;2023-09-19T00:36:37;15.70;99.90
46085;DHT22;31823;47.032;8.310;2023-09-19T00:39:06;15.70;99.90
46085;DHT22;31823;47.032;8.310;2023-09-19T00:41:33;15.60;99.90
46085;DHT22;31823;47.032;8.310;2023-09-19T00:44:01;15.60;99.90
46085;DHT22;31823;47.032;8.310;2023-09-19T00:46:27;15.60;99.90
46085;DHT22;31823;47.032;8.310;2023-09-19T00:48:53;15.60;99.90
46085;DHT22;31823;47.032;8.310;2023-09-19T00:51:20;15.70;99.90
46085;DHT22;31823;47.032;8.310;2023-09-19T00:53:46;15.70;99.90
46085;DHT22;31823;47.032;8.310;2023-09-19T00:56:13;15.70;99.90
46085;DHT22;31823;47.032;8.310;2023-09-19T00:58:39;15.70;99.90
46085;DHT22;31823;47.032;8.310;2023-09-19T01:01:05;15.70;99.90
46085;DHT22;31823;47.032;8.310;2023-09-19T01:03:33;15.70;99.90
46085;DHT22;31823;47.032;8.310;2023-09-19T01:06:01;15.70;99.90
46085;DHT22;31823;47.032;8.310;2023-09-19T01:08:28;15.70;99.90
46085;DHT22;31823;47.032;8.310;2023-09-19T01:13:56;16.00;99.90
46085;DHT22;31823;47.032;8.310;2023-09-19T01:16:40;15.80;99.90
46085;DHT22;31823;47.032;8.310;2023-09-19T01:22:21;15.50;99.90
46085;DHT22;31823;47.032;8.310;2023-09-19T01:28:39;15.30;99.90
46085;DHT22;31823;47.032;8.310;2023-09-19T01:31:11;15.30;99.90
46085;DHT22;31823;47.032;8.310;2023-09-19T01:33:57;15.40;99.90
46085;DHT22;31823;47.032;8.310;2023-09-19T01:36:29;15.40;99.90
46085;DHT22;31823;47.032;8.310;2023-09-19T01:38:56;15.40;99.90
46085;DHT22;31823;47.032;8.310;2023-09-19T01:41:33;15.40;99.90
46085;DHT22;31823;47.032;8.310;2023-09-19T01:44:06;15.50;99.90
46085;DHT22;31823;47.032;8.310;2023-09-19T01:46:37;15.50;99.90
46085;DHT22;31823;47.032;8.310;2023-09-19T01:49:37;15.50;99.90
46085;DHT22;31823;47.032;8.310;2023-09-19T01:52:15;15.40;99.90
46085;DHT22;31823;47.032;8.310;2023-09-19T01:54:52;15.40;99.90
46085;DHT22;31823;47.032;8.310;2023-09-19T01:57:29;15.40;99.90
46085;DHT22;31823;47.032;8.310;2023-09-19T02:00:02;15.40;99.90
46085;DHT22;31823;47.032;8.310;2023-09-19T02:02:37;15.30;99.90
46085;DHT22;31823;47.032;8.310;2023-09-19T02:05:04;15.30;99.90
46085;DHT22;31823;47.032;8.310;2023-09-19T02:07:30;15.40;99.90
46085;DHT22;31823;47.032;8.310;2023-09-19T02:09:59;15.40;99.90
46085;DHT22;31823;47.032;8.310;2023-09-19T02:12:31;15.40;99.90
46085;DHT22;31823;47.032;8.310;2023-09-19T02:14:58;15.40;99.90
46085;DHT22;31823;47.032;8.310;2023-09-19T02:17:24;15.40;99.90
46085;DHT22;31823;47.032;8.310;2023-09-19T02:19:55;15.30;99.90
46085;DHT22;31823;47.032;8.310;2023-09-19T02:22:21;15.30;99.90
46085;DHT22;31823;47.032;8.310;2023-09-19T02:24:48;15.40;99.90
46085;DHT22;31823;47.032;8.310;2023-09-19T02:27:14;15.40;99.90
46085;DHT22;31823;47.032;8.310;2023-09-19T02:29:42;15.40;99.90
46085;DHT22;31823;47.032;8.310;2023-09-19T02:32:07;15.30;99.90
46085;DHT22;31823;47.032;8.310;2023-09-19T02:34:35;15.30;99.90
46085;DHT22;31823;47.032;8.310;2023-09-19T02:37:05;15.30;99.90
46085;DHT22;31823;47.032;8.310;2023-09-19T02:39:34;15.20;99.90
46085;DHT22;31823;47.032;8.310;2023-09-19T02:42:01;15.20;99.90
46085;DHT22;31823;47.032;8.310;2023-09-19T02:44:27;15.20;99.90
46085;DHT22;31823;47.032;8.310;2023-09-19T02:46:53;15.30;99.90
46085;DHT22;31823;47.032;8.310;2023-09-19T02:49:18;15.30;99.90
46085;DHT22;31823;47.032;8.310;2023-09-19T02:51:44;15.20;99.90
46085;DHT22;31823;47.032;8.310;2023-09-19T02:54:11;15.30;99.90
46085;DHT22;31823;47.032;8.310;2023-09-19T02:56:37;15.20;99.90
46085;DHT22;31823;47.032;8.310;2023-09-19T02:59:03;15.20;99.90
46085;DHT22;31823;47.032;8.310;2023-09-19T03:01:29;15.20;99.90
46085;DHT22;31823;47.032;8.310;2023-09-19T03:03:55;15.20;99.90
46085;DHT22;31823;47.032;8.310;2023-09-19T03:06:21;15.20;99.90
46085;DHT22;31823;47.032;8.310;2023-09-19T03:08:47;15.20;99.90
46085;DHT22;31823;47.032;8.310;2023-09-19T03:11:14;15.20;99.90
46085;DHT22;31823;47.032;8.310;2023-09-19T03:13:41;15.20;99.90
46085;DHT22;31823;47.032;8.310;2023-09-19T03:16:08;15.20;99.90
46085;DHT22;31823;47.032;8.310;2023-09-19T03:18:34;15.30;99.90
46085;DHT22;31823;47.032;8.310;2023-09-19T03:21:00;15.40;99.90
46085;DHT22;31823;47.032;8.310;2023-09-19T03:23:27;15.40;99.90
46085;DHT22;31823;47.032;8.310;2023-09-19T03:25:53;15.50;99.90
46085;DHT22;31823;47.032;8.310;2023-09-19T03:28:19;15.60;99.90
46085;DHT22;31823;47.032;8.310;2023-09-19T03:30:46;15.70;99.90
46085;DHT22;31823;47.032;8.310;2023-09-19T03:33:12;15.60;99.90
46085;DHT22;31823;47.032;8.310;2023-09-19T03:35:39;15.50;99.90
46085;DHT22;31823;47.032;8.310;2023-09-19T03:38:05;15.40;99.90
46085;DHT22;31823;47.032;8.310;2023-09-19T03:40:31;15.50;99.90
46085;DHT22;31823;47.032;8.310;2023-09-19T03:42:56;15.60;99.90
46085;DHT22;31823;47.032;8.310;2023-09-19T03:45:25;15.60;99.90
46085;DHT22;31823;47.032;8.310;2023-09-19T03:47:51;15.40;99.90
46085;DHT22;31823;47.032;8.310;2023-09-19T03:50:16;15.30;99.90
46085;DHT22;31823;47.032;8.310;2023-09-19T03:52:44;15.30;99.90
46085;DHT22;31823;47.032;8.310;2023-09-19T03:55:09;15.30;99.90
46085;DHT22;31823;47.032;8.310;2023-09-19T03:57:36;15.30;99.90
46085;DHT22;31823;47.032;8.310;2023-09-19T04:00:02;15.30;99.90
46085;DHT22;31823;47.032;8.310;2023-09-19T04:02:30;15.20;99.90
46085;DHT22;31823;47.032;8.310;2023-09-19T04:04:58;15.20;99.90
46085;DHT22;31823;47.032;8.310;2023-09-19T04:07:24;15.30;99.90
46085;DHT22;31823;47.032;8.310;2023-09-19T04:09:51;15.20;99.90
46085;DHT22;31823;47.032;8.310;2023-09-19T04:12:19;15.20;99.90
46085;DHT22;31823;47.032;8.310;2023-09-19T04:14:44;15.30;99.90
46085;DHT22;31823;47.032;8.310;2023-09-19T04:17:10;15.40;99.90
46085;DHT22;31823;47.032;8.310;2023-09-19T04:19:36;15.50;99.90
46085;DHT22;31823;47.032;8.310;2023-09-19T04:22:02;15.50;99.90
46085;DHT22;31823;47.032;8.310;2023-09-19T04:24:29;15.50;99.90
46085;DHT22;31823;47.032;8.310;2023-09-19T04:26:54;15.50;99.90
46085;DHT22;31823;47.032;8.310;2023-09-19T04:29:20;15.40;99.90
46085;DHT22;31823;47.032;8.310;2023-09-19T04:31:46;15.40;99.90
46085;DHT22;31823;47.032;8.310;2023-09-19T04:34:12;15.40;99.90
46085;DHT22;31823;47.032;8.310;2023-09-19T04:36:43;15.30;99.90
46085;DHT22;31823;47.032;8.310;2023-09-19T04:39:09;15.40;99.90
46085;DHT22;31823;47.032;8.310;2023-09-19T04:41:36;15.50;99.90
46085;DHT22;31823;47.032;8.310;2023-09-19T04:44:07;15.30;99.90
46085;DHT22;31823;47.032;8.310;2023-09-19T04:46:35;15.30;99.90
46085;DHT22;31823;47.032;8.310;2023-09-19T04:49:01;15.30;99.90
46085;DHT22;31823;47.032;8.310;2023-09-19T04:51:27;15.30;99.90
46085;DHT22;31823;47.032;8.310;2023-09-19T04:53:59;15.30;99.90
46085;DHT22;31823;47.032;8.310;2023-09-19T04:56:25;15.30;99.90
46085;DHT22;31823;47.032;8.310;2023-09-19T04:58:51;15.20;99.90
46085;DHT22;31823;47.032;8.310;2023-09-19T05:01:16;15.30;99.90
46085;DHT22;31823;47.032;8.310;2023-09-19T05:03:42;15.20;99.90
46085;DHT22;31823;47.032;8.310;2023-09-19T05:06:07;15.20;99.90
46085;DHT22;31823;47.032;8.310;2023-09-19T05:08:33;15.20;99.90
46085;DHT22;31823;47.032;8.310;2023-09-19T05:11:01;15.30;99.90
46085;DHT22;31823;47.032;8.310;2023-09-19T05:13:27;15.30;99.90
46085;DHT22;31823;47.032;8.310;2023-09-19T05:15:53;15.20;99.90
46085;DHT22;31823;47.032;8.310;2023-09-19T05:18:18;15.30;99.90
46085;DHT22;31823;47.032;8.310;2023-09-19T05:20:44;15.30;99.90
46085;DHT22;31823;47.032;8.310;2023-09-19T05:23:09;15.30;99.90
46085;DHT22;31823;47.032;8.310;2023-09-19T05:25:38;15.30;99.90
46085;DHT22;31823;47.032;8.310;2023-09-19T05:28:05;15.30;99.90
46085;DHT22;31823;47.032;8.310;2023-09-19T05:30:32;15.20;99.90
46085;DHT22;31823;47.032;8.310;2023-09-19T05:32:58;15.20;99.90
46085;DHT22;31823;47.032;8.310;2023-09-19T05:35:24;15.20;99.90
46085;DHT22;31823;47.032;8.310;2023-09-19T05:37:50;15.20;99.90
46085;DHT22;31823;47.032;8.310;2023-09-19T05:40:19;15.20;99.90
46085;DHT22;31823;47.032;8.310;2023-09-19T05:42:46;15.30;99.90
46085;DHT22;31823;47.032;8.310;2023-09-19T05:45:12;15.30;99.90
46085;DHT22;31823;47.032;8.310;2023-09-19T05:47:39;15.30;99.90
46085;DHT22;31823;47.032;8.310;2023-09-19T05:50:06;15.30;99.90
46085;DHT22;31823;47.032;8.310;2023-09-19T05:52:35;15.30;99.90
46085;DHT22;31823;47.032;8.310;2023-09-19T05:55:00;15.30;99.90
46085;DHT22;31823;47.032;8.310;2023-09-19T05:57:26;15.40;99.90
46085;DHT22;31823;47.032;8.310;2023-09-19T05:59:53;15.40;99.90
46085;DHT22;31823;47.032;8.310;2023-09-19T06:02:18;15.50;99.90
46085;DHT22;31823;47.032;8.310;2023-09-19T06:04:45;15.50;99.90
46085;DHT22;31823;47.032;8.310;2023-09-19T06:07:10;15.60;99.90
46085;DHT22;31823;47.032;8.310;2023-09-19T06:09:36;15.70;99.90
46085;DHT22;31823;47.032;8.310;2023-09-19T06:12:02;15.80;99.90
46085;DHT22;31823;47.032;8.310;2023-09-19T06:14:29;15.70;99.90
46085;DHT22;31823;47.032;8.310;2023-09-19T06:16:54;15.60;99.90
46085;DHT22;31823;47.032;8.310;2023-09-19T06:19:20;15.70;99.90
46085;DHT22;31823;47.032;8.310;2023-09-19T06:21:48;15.70;99.90
46085;DHT22;31823;47.032;8.310;2023-09-19T06:24:14;15.80;99.90
46085;DHT22;31823;47.032;8.310;2023-09-19T06:26:40;15.80;99.90
46085;DHT22;31823;47.032;8.310;2023-09-19T06:29:06;15.90;99.90
46085;DHT22;31823;47.032;8.310;2023-09-19T06:31:33;15.90;99.90
46085;DHT22;31823;47.032;8.310;2023-09-19T06:33:59;15.90;99.90
46085;DHT22;31823;47.032;8.310;2023-09-19T06:36:25;15.90;99.90
46085;DHT22;31823;47.032;8.310;2023-09-19T06:38:50;15.90;99.90
46085;DHT22;31823;47.032;8.310;2023-09-19T06:41:18;15.90;99.90
46085;DHT22;31823;47.032;8.310;2023-09-19T06:43:44;15.90;99.90
46085;DHT22;31823;47.032;8.310;2023-09-19T06:46:10;16.00;99.90
46085;DHT22;31823;47.032;8.310;2023-09-19T06:48:36;16.10;99.90
46085;DHT22;31823;47.032;8.310;2023-09-19T06:51:02;16.00;99.90
46085;DHT22;31823;47.032;8.310;2023-09-19T06:53:31;16.10;99.90
46085;DHT22;31823;47.032;8.310;2023-09-19T06:55:58;16.00;99.90
46085;DHT22;31823;47.032;8.310;2023-09-19T06:58:23;16.10;99.90
46085;DHT22;31823;47.032;8.310;2023-09-19T07:00:49;16.10;99.90
46085;DHT22;31823;47.032;8.310;2023-09-19T07:03:16;16.10;99.90
46085;DHT22;31823;47.032;8.310;2023-09-19T07:05:44;16.00;99.90
46085;DHT22;31823;47.032;8.310;2023-09-19T07:08:10;16.10;99.90
46085;DHT22;31823;47.032;8.310;2023-09-19T07:10:38;16.10;99.90
46085;DHT22;31823;47.032;8.310;2023-09-19T07:13:06;16.10;99.90
46085;DHT22;31823;47.032;8.310;2023-09-19T07:15:36;16.10;99.90
46085;DHT22;31823;47.032;8.310;2023-09-19T07:18:05;16.20;99.90
46085;DHT22;31823;47.032;8.310;2023-09-19T07:20:31;16.20;99.90
46085;DHT22;31823;47.032;8.310;2023-09-19T07:22:58;16.20;99.90
46085;DHT22;31823;47.032;8.310;2023-09-19T07:25:27;16.30;99.90
46085;DHT22;31823;47.032;8.310;2023-09-19T07:27:55;16.40;99.90
46085;DHT22;31823;47.032;8.310;2023-09-19T07:30:20;16.50;99.90
46085;DHT22;31823;47.032;8.310;2023-09-19T07:32:46;16.60;99.90
46085;DHT22;31823;47.032;8.310;2023-09-19T07:35:12;16.60;99.90
46085;DHT22;31823;47.032;8.310;2023-09-19T07:37:38;16.60;99.90
46085;DHT22;31823;47.032;8.310;2023-09-19T07:40:04;16.60;99.90
46085;DHT22;31823;47.032;8.310;2023-09-19T07:42:35;16.80;99.90
46085;DHT22;31823;47.032;8.310;2023-09-19T07:45:02;16.80;99.90
46085;DHT22;31823;47.032;8.310;2023-09-19T07:47:28;16.90;99.90
46085;DHT22;31823;47.032;8.310;2023-09-19T07:49:55;16.80;99.90
46085;DHT22;31823;47.032;8.310;2023-09-19T07:52:21;16.70;99.90
46085;DHT22;31823;47.032;8.310;2023-09-19T07:54:48;16.70;99.90
46085;DHT22;31823;47.032;8.310;2023-09-19T07:57:15;16.70;99.90
46085;DHT22;31823;47.032;8.310;2023-09-19T07:59:41;16.80;99.90
46085;DHT22;31823;47.032;8.310;2023-09-19T08:02:10;17.00;99.90
46085;DHT22;31823;47.032;8.310;2023-09-19T08:04:42;17.20;99.90
46085;DHT22;31823;47.032;8.310;2023-09-19T08:07:08;17.40;99.90
46085;DHT22;31823;47.032;8.310;2023-09-19T08:09:36;17.60;99.90
46085;DHT22;31823;47.032;8.310;2023-09-19T08:12:04;17.80;99.90
46085;DHT22;31823;47.032;8.310;2023-09-19T08:14:30;18.00;99.90
46085;DHT22;31823;47.032;8.310;2023-09-19T08:16:57;17.90;99.90
46085;DHT22;31823;47.032;8.310;2023-09-19T08:19:24;17.90;99.90
46085;DHT22;31823;47.032;8.310;2023-09-19T08:21:56;17.80;99.90
46085;DHT22;31823;47.032;8.310;2023-09-19T08:24:25;17.80;99.90
46085;DHT22;31823;47.032;8.310;2023-09-19T08:26:52;17.80;99.90
46085;DHT22;31823;47.032;8.310;2023-09-19T08:29:20;17.80;99.90
46085;DHT22;31823;47.032;8.310;2023-09-19T08:31:45;17.80;99.90
46085;DHT22;31823;47.032;8.310;2023-09-19T08:34:13;18.00;99.90
46085;DHT22;31823;47.032;8.310;2023-09-19T08:36:38;18.00;99.90
46085;DHT22;31823;47.032;8.310;2023-09-19T08:39:06;18.00;99.90
46085;DHT22;31823;47.032;8.310;2023-09-19T08:41:31;18.00;99.90
46085;DHT22;31823;47.032;8.310;2023-09-19T08:44:00;18.00;99.90
46085;DHT22;31823;47.032;8.310;2023-09-19T08:46:30;17.60;99.90
46085;DHT22;31823;47.032;8.310;2023-09-19T08:49:07;17.70;99.90
46085;DHT22;31823;47.032;8.310;2023-09-19T08:51:42;17.40;99.90
46085;DHT22;31823;47.032;8.310;2023-09-19T08:54:37;17.60;99.90
46085;DHT22;31823;47.032;8.310;2023-09-19T08:57:06;17.40;99.90
46085;DHT22;31823;47.032;8.310;2023-09-19T08:59:40;17.30;99.90
46085;DHT22;31823;47.032;8.310;2023-09-19T09:02:14;17.50;99.90
46085;DHT22;31823;47.032;8.310;2023-09-19T09:04:41;17.60;99.90
46085;DHT22;31823;47.032;8.310;2023-09-19T09:07:13;17.60;99.90
46085;DHT22;31823;47.032;8.310;2023-09-19T09:09:40;17.80;99.90
46085;DHT22;31823;47.032;8.310;2023-09-19T09:12:13;17.90;99.90
46085;DHT22;31823;47.032;8.310;2023-09-19T09:14:48;17.90;99.90
46085;DHT22;31823;47.032;8.310;2023-09-19T09:17:15;18.20;99.90
46085;DHT22;31823;47.032;8.310;2023-09-19T09:19:43;18.20;99.90
46085;DHT22;31823;47.032;8.310;2023-09-19T09:22:09;18.20;99.90
46085;DHT22;31823;47.032;8.310;2023-09-19T09:24:36;18.30;99.90
46085;DHT22;31823;47.032;8.310;2023-09-19T09:27:05;18.30;99.90
46085;DHT22;31823;47.032;8.310;2023-09-19T09:29:45;18.30;99.90
46085;DHT22;31823;47.032;8.310;2023-09-19T09:34:54;18.10;99.90
46085;DHT22;31823;47.032;8.310;2023-09-19T09:37:21;18.00;99.90
46085;DHT22;31823;47.032;8.310;2023-09-19T09:39:51;17.90;99.90
46085;DHT22;31823;47.032;8.310;2023-09-19T09:42:36;18.00;99.90
46085;DHT22;31823;47.032;8.310;2023-09-19T09:47:48;18.20;99.90
46085;DHT22;31823;47.032;8.310;2023-09-19T09:53:29;18.40;99.90
46085;DHT22;31823;47.032;8.310;2023-09-19T09:58:22;18.60;99.90
46085;DHT22;31823;47.032;8.310;2023-09-19T10:00:55;18.60;99.90
46085;DHT22;31823;47.032;8.310;2023-09-19T10:03:42;18.60;99.90
46085;DHT22;31823;47.032;8.310;2023-09-19T10:06:16;18.50;99.90
46085;DHT22;31823;47.032;8.310;2023-09-19T10:09:01;18.50;99.90
46085;DHT22;31823;47.032;8.310;2023-09-19T10:11:42;18.50;99.90
46085;DHT22;31823;47.032;8.310;2023-09-19T10:14:13;18.60;99.90
46085;DHT22;31823;47.032;8.310;2023-09-19T10:16:47;18.70;99.90
46085;DHT22;31823;47.032;8.310;2023-09-19T10:19:21;18.90;99.90
46085;DHT22;31823;47.032;8.310;2023-09-19T10:21:50;18.90;99.90
46085;DHT22;31823;47.032;8.310;2023-09-19T10:24:19;19.00;99.90
46085;DHT22;31823;47.032;8.310;2023-09-19T10:26:46;19.10;99.90
46085;DHT22;31823;47.032;8.310;2023-09-19T10:29:16;19.20;99.90
46085;DHT22;31823;47.032;8.310;2023-09-19T10:31:44;19.20;99.90
46085;DHT22;31823;47.032;8.310;2023-09-19T10:34:14;19.20;99.90
46085;DHT22;31823;47.032;8.310;2023-09-19T10:36:46;19.50;99.90
46085;DHT22;31823;47.032;8.310;2023-09-19T10:39:16;19.60;99.90
46085;DHT22;31823;47.032;8.310;2023-09-19T10:41:50;20.00;99.90
46085;DHT22;31823;47.032;8.310;2023-09-19T10:44:23;20.90;99.90
46085;DHT22;31823;47.032;8.310;2023-09-19T10:46:53;20.90;99.90
46085;DHT22;31823;47.032;8.310;2023-09-19T10:49:20;20.80;99.90
46085;DHT22;31823;47.032;8.310;2023-09-19T10:51:48;21.00;99.90
46085;DHT22;31823;47.032;8.310;2023-09-19T10:54:17;20.60;99.90
46085;DHT22;31823;47.032;8.310;2023-09-19T10:56:48;20.30;99.90
46085;DHT22;31823;47.032;8.310;2023-09-19T10:59:17;20.20;99.90
46085;DHT22;31823;47.032;8.310;2023-09-19T11:01:54;20.20;99.90
46085;DHT22;31823;47.032;8.310;2023-09-19T11:07:11;20.40;99.90
46085;DHT22;31823;47.032;8.310;2023-09-19T11:09:54;19.80;99.90
46085;DHT22;31823;47.032;8.310;2023-09-19T11:24:27;20.80;99.90
46085;DHT22;31823;47.032;8.310;2023-09-19T11:27:13;20.20;99.90
46085;DHT22;31823;47.032;8.310;2023-09-19T11:29:40;20.10;99.90
46085;DHT22;31823;47.032;8.310;2023-09-19T11:32:06;20.30;99.90
46085;DHT22;31823;47.032;8.310;2023-09-19T11:34:42;20.10;99.90
46085;DHT22;31823;47.032;8.310;2023-09-19T11:39:37;19.90;99.90
46085;DHT22;31823;47.032;8.310;2023-09-19T11:47:56;19.80;99.90
46085;DHT22;31823;47.032;8.310;2023-09-19T11:50:23;19.70;99.90
46085;DHT22;31823;47.032;8.310;2023-09-19T11:52:51;19.70;99.90
46085;DHT22;31823;47.032;8.310;2023-09-19T11:55:17;19.70;99.90
46085;DHT22;31823;47.032;8.310;2023-09-19T11:57:49;19.70;99.90
46085;DHT22;31823;47.032;8.310;2023-09-19T12:00:19;19.60;99.90
46085;DHT22;31823;47.032;8.310;2023-09-19T12:02:47;19.60;99.90
46085;DHT22;31823;47.032;8.310;2023-09-19T12:05:16;19.70;99.90
46085;DHT22;31823;47.032;8.310;2023-09-19T12:07:43;19.90;99.90
46085;DHT22;31823;47.032;8.310;2023-09-19T12:10:13;20.30;99.90
46085;DHT22;31823;47.032;8.310;2023-09-19T12:12:47;20.60;99.90
46085;DHT22;31823;47.032;8.310;2023-09-19T12:15:13;20.90;99.90
46085;DHT22;31823;47.032;8.310;2023-09-19T12:17:40;21.20;99.90
46085;DHT22;31823;47.032;8.310;2023-09-19T12:20:08;21.30;99.90
46085;DHT22;31823;47.032;8.310;2023-09-19T12:22:41;21.40;99.90
46085;DHT22;31823;47.032;8.310;2023-09-19T12:25:08;21.60;99.90
46085;DHT22;31823;47.032;8.310;2023-09-19T12:27:49;21.60;99.90
46085;DHT22;31823;47.032;8.310;2023-09-19T12:30:18;22.20;99.90
46085;DHT22;31823;47.032;8.310;2023-09-19T12:32:46;22.00;99.90
46085;DHT22;31823;47.032;8.310;2023-09-19T12:35:28;22.30;99.90
46085;DHT22;31823;47.032;8.310;2023-09-19T12:38:00;22.40;99.90
46085;DHT22;31823;47.032;8.310;2023-09-19T12:40:26;22.60;99.90
46085;DHT22;31823;47.032;8.310;2023-09-19T12:42:54;21.90;99.90
46085;DHT22;31823;47.032;8.310;2023-09-19T12:45:30;21.70;99.90
46085;DHT22;31823;47.032;8.310;2023-09-19T12:48:24;21.90;99.90
46085;DHT22;31823;47.032;8.310;2023-09-19T12:51:00;23.50;99.90
46085;DHT22;31823;47.032;8.310;2023-09-19T12:53:26;23.50;99.90
46085;DHT22;31823;47.032;8.310;2023-09-19T12:56:00;22.70;99.90
46085;DHT22;31823;47.032;8.310;2023-09-19T12:58:26;22.00;99.90
46085;DHT22;31823;47.032;8.310;2023-09-19T13:00:52;22.00;99.90
46085;DHT22;31823;47.032;8.310;2023-09-19T13:03:25;22.80;99.90
46085;DHT22;31823;47.032;8.310;2023-09-19T13:05:53;21.90;99.90
46085;DHT22;31823;47.032;8.310;2023-09-19T13:08:29;21.30;99.90
46085;DHT22;31823;47.032;8.310;2023-09-19T13:11:01;22.10;99.90
46085;DHT22;31823;47.032;8.310;2023-09-19T13:13:27;21.20;99.90
46085;DHT22;31823;47.032;8.310;2023-09-19T13:15:53;21.00;99.90
46085;DHT22;31823;47.032;8.310;2023-09-19T13:18:19;21.00;99.90
46085;DHT22;31823;47.032;8.310;2023-09-19T13:21:08;20.70;99.90
46085;DHT22;31823;47.032;8.310;2023-09-19T13:23:49;21.00;99.90
46085;DHT22;31823;47.032;8.310;2023-09-19T13:26:15;21.90;99.90
46085;DHT22;31823;47.032;8.310;2023-09-19T13:28:41;22.30;99.90
46085;DHT22;31823;47.032;8.310;2023-09-19T13:31:06;22.40;99.90
46085;DHT22;31823;47.032;8.310;2023-09-19T13:33:33;23.10;99.90
46085;DHT22;31823;47.032;8.310;2023-09-19T13:35:59;23.20;99.90
46085;DHT22;31823;47.032;8.310;2023-09-19T13:38:25;23.10;99.90
46085;DHT22;31823;47.032;8.310;2023-09-19T13:40:50;22.90;99.90
46085;DHT22;31823;47.032;8.310;2023-09-19T13:43:18;23.00;99.90
46085;DHT22;31823;47.032;8.310;2023-09-19T13:45:43;23.20;99.90
46085;DHT22;31823;47.032;8.310;2023-09-19T13:48:09;23.30;99.90
46085;DHT22;31823;47.032;8.310;2023-09-19T13:50:37;23.90;99.90
46085;DHT22;31823;47.032;8.310;2023-09-19T13:53:10;24.10;99.90
46085;DHT22;31823;47.032;8.310;2023-09-19T13:55:35;24.00;99.90
46085;DHT22;31823;47.032;8.310;2023-09-19T13:58:03;23.70;99.90
46085;DHT22;31823;47.032;8.310;2023-09-19T14:00:32;23.30;99.90
46085;DHT22;31823;47.032;8.310;2023-09-19T14:03:03;22.20;99.90
46085;DHT22;31823;47.032;8.310;2023-09-19T14:05:30;22.00;99.90
46085;DHT22;31823;47.032;8.310;2023-09-19T14:07:56;21.60;99.90
46085;DHT22;31823;47.032;8.310;2023-09-19T14:10:22;21.90;99.90
46085;DHT22;31823;47.032;8.310;2023-09-19T14:12:48;21.80;99.90
46085;DHT22;31823;47.032;8.310;2023-09-19T14:15:14;21.40;99.90
46085;DHT22;31823;47.032;8.310;2023-09-19T14:17:40;21.60;99.90
46085;DHT22;31823;47.032;8.310;2023-09-19T14:20:10;22.00;99.90
46085;DHT22;31823;47.032;8.310;2023-09-19T14:22:36;23.00;99.90
46085;DHT22;31823;47.032;8.310;2023-09-19T14:25:03;22.90;99.90
46085;DHT22;31823;47.032;8.310;2023-09-19T14:27:29;22.90;99.90
46085;DHT22;31823;47.032;8.310;2023-09-19T14:29:55;22.10;99.90
46085;DHT22;31823;47.032;8.310;2023-09-19T14:32:22;21.70;99.90
46085;DHT22;31823;47.032;8.310;2023-09-19T14:34:48;21.40;99.90
46085;DHT22;31823;47.032;8.310;2023-09-19T14:37:14;20.90;99.90
46085;DHT22;31823;47.032;8.310;2023-09-19T14:39:42;20.90;99.90
46085;DHT22;31823;47.032;8.310;2023-09-19T14:42:10;20.70;99.90
46085;DHT22;31823;47.032;8.310;2023-09-19T14:44:35;20.50;99.90
46085;DHT22;31823;47.032;8.310;2023-09-19T14:47:03;21.00;99.90
46085;DHT22;31823;47.032;8.310;2023-09-19T14:49:35;20.60;99.90
46085;DHT22;31823;47.032;8.310;2023-09-19T14:52:09;20.30;99.90
46085;DHT22;31823;47.032;8.310;2023-09-19T14:54:35;20.20;99.90
46085;DHT22;31823;47.032;8.310;2023-09-19T14:57:00;20.30;99.90
46085;DHT22;31823;47.032;8.310;2023-09-19T14:59:34;20.80;99.90
46085;DHT22;31823;47.032;8.310;2023-09-19T15:02:06;20.80;99.90
46085;DHT22;31823;47.032;8.310;2023-09-19T15:04:32;20.80;99.90
46085;DHT22;31823;47.032;8.310;2023-09-19T15:06:59;21.10;99.90
46085;DHT22;31823;47.032;8.310;2023-09-19T15:09:25;21.50;99.90
46085;DHT22;31823;47.032;8.310;2023-09-19T15:11:52;21.70;99.90
46085;DHT22;31823;47.032;8.310;2023-09-19T15:14:18;21.80;99.90
46085;DHT22;31823;47.032;8.310;2023-09-19T15:16:43;22.40;99.90
46085;DHT22;31823;47.032;8.310;2023-09-19T15:19:09;22.70;99.90
46085;DHT22;31823;47.032;8.310;2023-09-19T15:21:38;21.90;99.90
46085;DHT22;31823;47.032;8.310;2023-09-19T15:24:04;21.60;99.90
46085;DHT22;31823;47.032;8.310;2023-09-19T15:26:30;21.60;99.90
46085;DHT22;31823;47.032;8.310;2023-09-19T15:28:56;22.10;99.90
46085;DHT22;31823;47.032;8.310;2023-09-19T15:31:22;21.90;99.90
46085;DHT22;31823;47.032;8.310;2023-09-19T15:33:47;21.60;99.90
46085;DHT22;31823;47.032;8.310;2023-09-19T15:36:15;21.50;99.90
46085;DHT22;31823;47.032;8.310;2023-09-19T15:38:55;21.40;99.90
46085;DHT22;31823;47.032;8.310;2023-09-19T15:41:23;20.90;99.90
46085;DHT22;31823;47.032;8.310;2023-09-19T15:43:49;20.70;99.90
46085;DHT22;31823;47.032;8.310;2023-09-19T15:46:14;20.40;99.90
46085;DHT22;31823;47.032;8.310;2023-09-19T15:48:41;20.40;99.90
46085;DHT22;31823;47.032;8.310;2023-09-19T15:51:06;20.20;99.90
46085;DHT22;31823;47.032;8.310;2023-09-19T15:53:46;20.30;99.90
46085;DHT22;31823;47.032;8.310;2023-09-19T15:56:12;20.10;99.90
46085;DHT22;31823;47.032;8.310;2023-09-19T15:58:44;20.00;99.90
46085;DHT22;31823;47.032;8.310;2023-09-19T16:01:09;19.90;99.90
46085;DHT22;31823;47.032;8.310;2023-09-19T16:03:39;19.80;99.90
46085;DHT22;31823;47.032;8.310;2023-09-19T16:06:09;19.80;99.90
46085;DHT22;31823;47.032;8.310;2023-09-19T16:08:38;19.70;99.90
46085;DHT22;31823;47.032;8.310;2023-09-19T16:11:03;19.70;99.90
46085;DHT22;31823;47.032;8.310;2023-09-19T16:13:29;19.60;99.90
46085;DHT22;31823;47.032;8.310;2023-09-19T16:15:55;19.50;99.90
46085;DHT22;31823;47.032;8.310;2023-09-19T16:18:20;19.60;99.90
46085;DHT22;31823;47.032;8.310;2023-09-19T16:20:46;19.40;99.90
46085;DHT22;31823;47.032;8.310;2023-09-19T16:23:12;19.50;99.90